createdAt,value
2023-02-13T00:00:16.337Z,38.400
2023-02-13T00:01:16.193Z,37.800
2023-02-13T00:02:17.028Z,39.100
2023-02-13T00:03:15.960Z,36.100
2023-02-13T00:04:16.942Z,37.400
2023-02-13T00:05:16.560Z,38.800
2023-02-13T00:06:16.208Z,36.500
2023-02-13T00:07:15.861Z,35.400
2023-02-13T00:08:16.568Z,36.400
2023-02-13T00:09:16.206Z,36.800
2023-02-13T00:10:15.922Z,38.000
2023-02-13T00:11:16.589Z,37.700
2023-02-13T00:12:16.189Z,47.300
2023-02-13T00:13:16.905Z,47.500
2023-02-13T00:14:16.635Z,51.900
2023-02-13T00:15:16.550Z,54.800
2023-02-13T00:16:16.355Z,45.700
2023-02-13T00:17:16.084Z,46.500
2023-02-13T00:18:16.864Z,45.600
2023-02-13T00:19:16.631Z,44.700
2023-02-13T00:20:16.471Z,41.800
2023-02-13T00:21:16.252Z,43.500
2023-02-13T00:22:15.936Z,41.900
2023-02-13T00:23:16.919Z,41.300
2023-02-13T00:24:16.608Z,40.600
2023-02-13T00:25:16.224Z,41.100
2023-02-13T00:26:15.872Z,39.800
2023-02-13T00:27:16.616Z,37.400
2023-02-13T00:28:17.072Z,37.300
2023-02-13T00:29:15.951Z,39.100
2023-02-13T00:30:16.605Z,37.800
2023-02-13T00:31:16.873Z,40.300
2023-02-13T00:32:16.389Z,39.200
2023-02-13T00:33:16.066Z,36.800
2023-02-13T00:34:16.801Z,38.000
2023-02-13T00:35:16.622Z,39.500
2023-02-13T00:36:16.508Z,38.900
2023-02-13T00:37:16.194Z,39.500
2023-02-13T00:38:15.882Z,37.300
2023-02-13T00:39:16.742Z,36.600
2023-02-13T00:40:16.497Z,36.600
2023-02-13T00:41:16.153Z,37.900
2023-02-13T00:42:16.816Z,36.000
2023-02-13T00:43:16.512Z,36.300
2023-02-13T00:44:16.376Z,37.000
2023-02-13T00:45:16.039Z,36.900
2023-02-13T00:46:16.731Z,37.700
2023-02-13T00:47:16.700Z,37.000
2023-02-13T00:48:16.380Z,36.500
2023-02-13T00:49:16.099Z,34.200
2023-02-13T00:50:16.798Z,34.300
2023-02-13T00:51:16.791Z,33.600
2023-02-13T00:52:16.441Z,36.200
2023-02-13T00:53:16.175Z,36.500
2023-02-13T00:54:15.884Z,35.500
2023-02-13T00:55:16.691Z,34.400
2023-02-13T00:56:16.421Z,35.700
2023-02-13T00:57:16.073Z,33.500
2023-02-13T00:58:16.774Z,34.600
2023-02-13T00:59:16.887Z,36.000
2023-02-13T01:00:16.796Z,35.800
2023-02-13T01:01:16.631Z,35.400
2023-02-13T01:02:16.514Z,33.000
2023-02-13T01:03:16.334Z,33.500
2023-02-13T01:04:16.362Z,35.100
2023-02-13T01:05:16.112Z,33.300
2023-02-13T01:06:16.817Z,33.400
2023-02-13T01:07:16.774Z,34.300
2023-02-13T01:08:16.533Z,35.400
2023-02-13T01:09:16.211Z,35.900
2023-02-13T01:10:15.898Z,35.500
2023-02-13T01:11:16.845Z,35.000
2023-02-13T01:12:16.565Z,34.800
2023-02-13T01:13:16.310Z,34.200
2023-02-13T01:14:15.961Z,35.400
2023-02-13T01:15:16.773Z,34.600
2023-02-13T01:17:16.516Z,37.100
2023-02-13T01:18:16.178Z,34.600
2023-02-13T01:19:17.483Z,34.800
2023-02-13T01:20:16.216Z,36.100
2023-02-13T01:21:16.129Z,34.700
2023-02-13T01:22:16.805Z,35.700
2023-02-13T01:23:16.441Z,33.800
2023-02-13T01:24:16.359Z,35.000
2023-02-13T01:25:16.177Z,34.900
2023-02-13T01:26:16.831Z,34.200
2023-02-13T01:27:17.233Z,33.800
2023-02-13T01:28:16.113Z,34.200
2023-02-13T01:29:16.793Z,35.000
2023-02-13T01:30:16.444Z,33.600
2023-02-13T01:31:17.654Z,33.200
2023-02-13T01:32:16.867Z,32.900
2023-02-13T01:33:16.549Z,32.600
2023-02-13T01:34:16.332Z,32.300
2023-02-13T01:35:16.007Z,32.600
2023-02-13T01:36:16.808Z,33.000
2023-02-13T01:37:16.611Z,34.000
2023-02-13T01:38:16.300Z,32.100
2023-02-13T01:39:15.980Z,31.500
2023-02-13T01:40:16.901Z,32.500
2023-02-13T01:42:16.484Z,34.500
2023-02-13T01:43:16.138Z,34.800
2023-02-13T01:44:17.013Z,36.500
2023-02-13T01:45:16.806Z,35.100
2023-02-13T01:46:16.657Z,34.700
2023-02-13T01:47:16.333Z,32.900
2023-02-13T01:48:16.801Z,38.600
2023-02-13T01:49:16.654Z,40.400
2023-02-13T01:50:16.481Z,36.000
2023-02-13T01:51:16.441Z,34.400
2023-02-13T01:52:16.132Z,35.600
2023-02-13T01:53:16.879Z,36.900
2023-02-13T01:54:16.632Z,36.200
2023-02-13T01:55:16.313Z,36.200
2023-02-13T01:56:16.000Z,39.900
2023-02-13T01:57:16.681Z,39.500
2023-02-13T01:58:16.380Z,36.900
2023-02-13T01:59:16.215Z,36.400
2023-02-13T02:00:15.938Z,35.200
2023-02-13T02:01:16.605Z,35.000
2023-02-13T02:02:16.617Z,34.900
2023-02-13T02:03:16.719Z,35.400
2023-02-13T02:04:16.363Z,35.600
2023-02-13T02:05:16.195Z,37.200
2023-02-13T02:06:15.903Z,37.200
2023-02-13T02:07:16.492Z,34.900
2023-02-13T02:08:16.069Z,35.500
2023-02-13T02:09:16.961Z,36.500
2023-02-13T02:10:16.825Z,35.800
2023-02-13T02:11:16.519Z,32.800
2023-02-13T02:12:16.185Z,33.500
2023-02-13T02:13:16.130Z,35.300
2023-02-13T02:14:16.824Z,32.100
2023-02-13T02:15:16.620Z,35.500
2023-02-13T02:16:16.524Z,34.300
2023-02-13T02:17:16.409Z,35.300
2023-02-13T02:18:16.212Z,34.100
2023-02-13T02:19:16.957Z,34.900
2023-02-13T02:20:16.891Z,33.500
2023-02-13T02:21:16.550Z,34.300
2023-02-13T02:22:16.357Z,33.000
2023-02-13T02:23:16.191Z,33.300
2023-02-13T02:24:17.020Z,34.100
2023-02-13T02:25:16.850Z,32.200
2023-02-13T02:26:16.544Z,33.200
2023-02-13T02:27:16.139Z,32.100
2023-02-13T02:28:16.986Z,33.800
2023-02-13T02:29:16.737Z,31.000
2023-02-13T02:30:16.443Z,31.600
2023-02-13T02:31:17.195Z,33.200
2023-02-13T02:32:16.063Z,31.000
2023-02-13T02:33:16.687Z,30.700
2023-02-13T02:34:16.476Z,33.600
2023-02-13T02:35:16.236Z,30.700
2023-02-13T02:36:16.089Z,31.500
2023-02-13T02:37:16.773Z,32.900
2023-02-13T02:38:16.541Z,31.100
2023-02-13T02:39:16.193Z,30.600
2023-02-13T02:40:15.904Z,30.400
2023-02-13T02:41:16.928Z,28.000
2023-02-13T02:42:16.662Z,29.400
2023-02-13T02:43:16.365Z,30.600
2023-02-13T02:44:16.103Z,31.300
2023-02-13T02:45:16.834Z,32.200
2023-02-13T02:46:16.579Z,32.500
2023-02-13T02:47:16.445Z,31.800
2023-02-13T02:48:16.172Z,31.000
2023-02-13T02:49:15.951Z,32.300
2023-02-13T02:50:16.836Z,29.700
2023-02-13T02:51:16.488Z,31.700
2023-02-13T02:52:16.209Z,30.100
2023-02-13T02:54:16.456Z,29.100
2023-02-13T02:55:16.353Z,29.800
2023-02-13T02:56:16.008Z,28.400
2023-02-13T02:57:16.597Z,29.700
2023-02-13T02:58:16.204Z,30.100
2023-02-13T02:59:15.972Z,29.600
2023-02-13T03:00:16.859Z,31.700
2023-02-13T03:01:17.131Z,32.700
2023-02-13T03:02:15.856Z,34.800
2023-02-13T03:03:16.688Z,34.900
2023-02-13T03:04:16.457Z,33.800
2023-02-13T03:05:16.557Z,32.300
2023-02-13T03:06:16.204Z,30.600
2023-02-13T03:07:15.893Z,31.500
2023-02-13T03:08:16.573Z,30.200
2023-02-13T03:09:16.320Z,29.000
2023-02-13T03:10:16.020Z,26.500
2023-02-13T03:11:16.679Z,26.100
2023-02-13T03:12:16.384Z,26.400
2023-02-13T03:13:16.005Z,26.300
2023-02-13T03:14:16.645Z,26.800
2023-02-13T03:15:16.432Z,25.400
2023-02-13T03:16:16.367Z,23.800
2023-02-13T03:17:16.296Z,24.100
2023-02-13T03:18:15.928Z,21.700
2023-02-13T03:19:16.557Z,24.200
2023-02-13T03:20:16.347Z,23.600
2023-02-13T03:21:16.186Z,24.200
2023-02-13T03:22:16.833Z,23.100
2023-02-13T03:23:16.516Z,22.700
2023-02-13T03:24:16.192Z,21.800
2023-02-13T03:25:16.761Z,21.700
2023-02-13T03:26:16.468Z,20.300
2023-02-13T03:27:16.019Z,19.300
2023-02-13T03:28:16.805Z,19.100
2023-02-13T03:29:17.279Z,19.200
2023-02-13T03:30:17.028Z,18.300
2023-02-13T03:31:17.474Z,17.500
2023-02-13T03:32:16.344Z,17.100
2023-02-13T03:33:16.156Z,17.400
2023-02-13T03:34:16.968Z,16.600
2023-02-13T03:35:16.860Z,14.200
2023-02-13T03:36:16.716Z,16.800
2023-02-13T03:37:16.424Z,15.600
2023-02-13T03:38:16.165Z,16.600
2023-02-13T03:39:16.014Z,12.700
2023-02-13T03:40:16.753Z,13.200
2023-02-13T03:41:16.597Z,14.500
2023-02-13T03:42:16.224Z,13.700
2023-02-13T03:43:15.875Z,13.700
2023-02-13T03:44:16.525Z,12.900
2023-02-13T03:45:16.273Z,13.000
2023-02-13T03:46:16.151Z,12.600
2023-02-13T03:47:15.932Z,11.400
2023-02-13T03:48:16.596Z,12.400
2023-02-13T03:49:16.427Z,12.300
2023-02-13T03:50:16.196Z,11.000
2023-02-13T03:51:15.948Z,11.900
2023-02-13T03:52:16.607Z,10.900
2023-02-13T03:53:16.342Z,12.200
2023-02-13T03:54:16.140Z,11.000
2023-02-13T03:55:16.783Z,11.000
2023-02-13T03:56:16.488Z,11.300
2023-02-13T03:57:16.108Z,10.600
2023-02-13T03:58:16.736Z,11.200
2023-02-13T04:00:16.105Z,11.600
2023-02-13T04:01:17.298Z,11.000
2023-02-13T04:02:16.307Z,10.400
2023-02-13T04:03:15.981Z,10.100
2023-02-13T04:04:16.733Z,9.700
2023-02-13T04:05:16.528Z,9.300
2023-02-13T04:06:16.216Z,9.200
2023-02-13T04:07:15.953Z,9.800
2023-02-13T04:08:16.533Z,9.500
2023-02-13T04:09:16.325Z,8.800
2023-02-13T04:10:15.927Z,8.500
2023-02-13T04:11:16.685Z,8.900
2023-02-13T04:12:16.617Z,8.300
2023-02-13T04:13:16.241Z,8.700
2023-02-13T04:14:15.897Z,9.700
2023-02-13T04:15:16.535Z,9.000
2023-02-13T04:16:19.390Z,9.600
2023-02-13T04:17:22.656Z,9.600
2023-02-13T04:18:27.098Z,9.500
2023-02-13T04:20:24.407Z,9.800
2023-02-13T04:21:26.501Z,9.400
2023-02-13T04:22:25.152Z,9.600
2023-02-13T04:23:24.386Z,10.200
2023-02-13T04:24:24.312Z,10.300
2023-02-13T04:25:24.032Z,9.500
2023-02-13T04:26:23.840Z,9.700
2023-02-13T04:27:23.936Z,9.700
2023-02-13T04:28:24.109Z,10.000
2023-02-13T04:29:24.303Z,10.200
2023-02-13T04:30:24.529Z,9.800
2023-02-13T04:31:24.884Z,10.500
2023-02-13T04:32:24.232Z,9.800
2023-02-13T04:33:24.208Z,12.200
2023-02-13T04:35:24.459Z,10.200
2023-02-13T04:36:24.222Z,10.400
2023-02-13T04:38:23.966Z,10.000
2023-02-13T04:40:24.109Z,10.700
2023-02-13T04:41:24.007Z,11.300
2023-02-13T04:42:23.982Z,10.600
2023-02-13T04:43:23.647Z,10.400
2023-02-13T04:44:23.259Z,9.300
2023-02-13T04:45:24.021Z,10.100
2023-02-13T04:46:25.653Z,10.200
2023-02-13T04:47:23.875Z,10.300
2023-02-13T04:48:25.242Z,9.300
2023-02-13T04:49:26.407Z,9.500
2023-02-13T04:50:24.280Z,10.000
2023-02-13T04:51:23.953Z,9.300
2023-02-13T04:52:24.050Z,9.500
2023-02-13T04:53:23.934Z,9.300
2023-02-13T04:54:24.196Z,10.200
2023-02-13T04:55:24.262Z,10.400
2023-02-13T04:56:24.192Z,8.400
2023-02-13T04:57:24.205Z,9.900
2023-02-13T04:58:24.226Z,10.000
2023-02-13T04:59:24.088Z,9.600
2023-02-13T05:00:23.925Z,9.200
2023-02-13T05:01:24.259Z,10.600
2023-02-13T05:02:24.515Z,10.100
2023-02-13T05:03:24.150Z,9.300
2023-02-13T05:04:23.878Z,10.400
2023-02-13T05:05:23.652Z,10.300
2023-02-13T05:06:23.958Z,9.900
2023-02-13T05:07:23.928Z,10.000
2023-02-13T05:08:24.040Z,11.000
2023-02-13T05:09:24.187Z,10.600
2023-02-13T05:10:24.151Z,10.800
2023-02-13T05:11:24.046Z,11.100
2023-02-13T05:12:23.904Z,11.000
2023-02-13T05:13:24.230Z,11.200
2023-02-13T05:15:24.251Z,10.800
2023-02-13T05:16:24.197Z,11.100
2023-02-13T05:17:23.803Z,11.600
2023-02-13T05:18:24.628Z,11.300
2023-02-13T05:19:24.923Z,11.900
2023-02-13T05:20:24.353Z,11.300
2023-02-13T05:21:24.334Z,12.200
2023-02-13T05:22:23.993Z,11.200
2023-02-13T05:23:23.909Z,10.600
2023-02-13T05:24:23.999Z,11.500
2023-02-13T05:25:24.103Z,10.800
2023-02-13T05:26:24.474Z,11.600
2023-02-13T05:27:25.879Z,12.100
2023-02-13T05:29:23.882Z,11.900
2023-02-13T05:30:24.012Z,11.700
2023-02-13T05:31:24.407Z,11.300
2023-02-13T05:32:24.151Z,11.100
2023-02-13T05:33:24.306Z,12.100
2023-02-13T05:34:24.406Z,11.900
2023-02-13T05:35:24.444Z,11.900
2023-02-13T05:36:23.746Z,11.500
2023-02-13T05:37:23.949Z,12.800
2023-02-13T05:38:23.709Z,13.000
2023-02-13T05:39:23.622Z,14.700
2023-02-13T05:40:24.343Z,12.500
2023-02-13T05:41:23.954Z,12.200
2023-02-13T05:42:23.888Z,12.100
2023-02-13T05:43:26.306Z,12.500
2023-02-13T05:44:24.642Z,12.600
2023-02-13T05:45:23.891Z,12.200
2023-02-13T05:46:24.284Z,11.700
2023-02-13T05:48:24.785Z,11.800
2023-02-13T05:49:26.515Z,12.300
2023-02-13T05:50:24.140Z,11.900
2023-02-13T05:51:23.363Z,11.000
2023-02-13T05:53:24.109Z,12.600
2023-02-13T05:54:23.973Z,13.200
2023-02-13T05:55:24.199Z,11.900
2023-02-13T05:56:23.945Z,12.400
2023-02-13T05:58:23.713Z,12.200
2023-02-13T05:59:24.084Z,11.600
2023-02-13T06:00:23.753Z,12.100
2023-02-13T06:01:23.958Z,12.000
2023-02-13T06:03:25.510Z,11.500
2023-02-13T06:04:24.883Z,12.100
2023-02-13T06:05:24.044Z,12.700
2023-02-13T06:06:24.080Z,13.600
2023-02-13T06:08:23.622Z,12.200
2023-02-13T06:09:23.620Z,12.600
2023-02-13T06:10:23.166Z,11.400
2023-02-13T06:11:24.111Z,11.800
2023-02-13T06:13:24.191Z,12.800
2023-02-13T06:14:24.560Z,13.200
2023-02-13T06:15:24.567Z,12.400
2023-02-13T06:16:24.577Z,12.100
2023-02-13T06:18:24.583Z,13.100
2023-02-13T06:19:24.506Z,11.700
2023-02-13T06:20:24.064Z,13.100
2023-02-13T06:21:24.046Z,13.500
2023-02-13T06:22:24.109Z,12.400
2023-02-13T06:23:25.620Z,13.400
2023-02-13T06:24:23.525Z,13.600
2023-02-13T06:25:23.998Z,14.000
2023-02-13T06:26:24.365Z,14.700
2023-02-13T06:27:24.603Z,13.300
2023-02-13T06:28:24.664Z,12.700
2023-02-13T06:29:25.572Z,14.700
2023-02-13T06:30:24.874Z,16.400
2023-02-13T06:31:24.564Z,13.900
2023-02-13T06:33:23.975Z,15.400
2023-02-13T06:34:24.148Z,15.800
2023-02-13T06:35:24.333Z,16.300
2023-02-13T06:36:24.382Z,16.000
2023-02-13T06:37:24.330Z,14.500
2023-02-13T06:38:24.291Z,16.300
2023-02-13T06:39:24.325Z,14.300
2023-02-13T06:40:24.109Z,15.000
2023-02-13T06:41:24.121Z,15.800
2023-02-13T06:42:24.134Z,16.300
2023-02-13T06:43:24.046Z,16.700
2023-02-13T06:44:24.087Z,16.700
2023-02-13T06:45:24.178Z,16.800
2023-02-13T06:46:24.204Z,18.500
2023-02-13T06:47:24.193Z,16.900
2023-02-13T06:48:23.916Z,17.500
2023-02-13T06:49:24.188Z,16.500
2023-02-13T06:50:24.147Z,17.000
2023-02-13T06:51:24.134Z,17.800
2023-02-13T06:52:25.399Z,17.500
2023-02-13T06:53:24.306Z,16.900
2023-02-13T06:54:33.997Z,17.300
2023-02-13T06:56:35.631Z,20.000
2023-02-13T06:57:35.344Z,21.900
2023-02-13T06:58:36.516Z,17.800
2023-02-13T06:59:36.596Z,17.600
2023-02-13T07:00:36.048Z,18.900
2023-02-13T07:01:36.402Z,16.100
2023-02-13T07:02:36.302Z,18.300
2023-02-13T07:03:36.127Z,17.700
2023-02-13T07:04:35.779Z,17.400
2023-02-13T07:05:35.783Z,16.900
2023-02-13T07:06:36.362Z,18.300
2023-02-13T07:07:35.916Z,17.500
2023-02-13T07:08:35.784Z,19.300
2023-02-13T07:09:35.887Z,20.300
2023-02-13T07:10:35.450Z,18.000
2023-02-13T07:11:36.852Z,19.300
2023-02-13T07:12:37.380Z,18.400
2023-02-13T07:13:40.878Z,17.900
2023-02-13T07:15:37.709Z,17.200
2023-02-13T07:16:38.680Z,16.600
2023-02-13T07:17:37.693Z,16.300
2023-02-13T07:18:38.656Z,16.600
2023-02-13T07:19:37.814Z,15.500
2023-02-13T07:20:39.554Z,15.600
2023-02-13T07:21:38.338Z,13.900
2023-02-13T07:22:38.339Z,14.700
2023-02-13T07:23:38.262Z,15.200
2023-02-13T07:24:38.208Z,15.800
2023-02-13T07:25:35.894Z,15.800
2023-02-13T07:26:39.045Z,17.100
2023-02-13T07:28:37.193Z,14.100
2023-02-13T07:29:42.948Z,13.600
2023-02-13T07:31:40.486Z,14.900
2023-02-13T07:32:39.837Z,14.300
2023-02-13T07:33:40.560Z,15.800
2023-02-13T07:34:49.237Z,18.500
2023-02-13T07:36:47.061Z,18.600
2023-02-13T07:37:47.177Z,17.700
2023-02-13T07:38:46.994Z,18.900
2023-02-13T07:39:46.947Z,17.400
2023-02-13T07:40:46.496Z,16.600
2023-02-13T07:41:47.294Z,18.700
2023-02-13T07:42:47.254Z,17.300
2023-02-13T07:43:47.325Z,16.700
2023-02-13T07:44:47.138Z,17.200
2023-02-13T07:45:47.081Z,16.500
2023-02-13T07:46:46.570Z,17.300
2023-02-13T07:47:47.524Z,16.900
2023-02-13T07:48:47.533Z,17.800
2023-02-13T07:49:48.598Z,16.800
2023-02-13T07:50:47.385Z,16.600
2023-02-13T07:51:47.050Z,17.600
2023-02-13T07:52:46.929Z,15.800
2023-02-13T07:53:46.814Z,16.700
2023-02-13T07:54:47.065Z,17.700
2023-02-13T07:55:46.991Z,17.600
2023-02-13T07:56:46.863Z,16.500
2023-02-13T07:57:45.937Z,15.800
2023-02-13T07:58:41.357Z,18.300
2023-02-13T07:59:42.040Z,16.200
2023-02-13T08:00:42.244Z,16.600
2023-02-13T08:01:41.172Z,16.700
2023-02-13T08:02:40.997Z,15.500
2023-02-13T08:03:41.763Z,14.800
2023-02-13T08:04:42.528Z,15.500
2023-02-13T08:05:41.257Z,15.000
2023-02-13T08:06:40.958Z,15.100
2023-02-13T08:07:41.811Z,13.500
2023-02-13T08:08:41.407Z,13.600
2023-02-13T08:09:41.121Z,13.600
2023-02-13T08:10:41.865Z,12.500
2023-02-13T08:11:41.633Z,14.300
2023-02-13T08:12:41.277Z,11.700
2023-02-13T08:13:41.024Z,11.800
2023-02-13T08:14:41.744Z,14.100
2023-02-13T08:15:41.397Z,10.800
2023-02-13T08:16:41.230Z,10.800
2023-02-13T08:17:41.048Z,12.100
2023-02-13T08:18:41.874Z,13.300
2023-02-13T08:19:41.673Z,14.500
2023-02-13T08:20:41.654Z,11.700
2023-02-13T08:21:41.400Z,11.900
2023-02-13T08:22:41.202Z,11.700
2023-02-13T08:23:41.162Z,12.600
2023-02-13T08:24:40.845Z,12.500
2023-02-13T08:25:41.515Z,11.600
2023-02-13T08:26:41.284Z,12.600
2023-02-13T08:27:40.953Z,12.800
2023-02-13T08:28:41.933Z,11.000
2023-02-13T08:29:41.903Z,12.500
2023-02-13T08:30:41.679Z,12.400
2023-02-13T08:31:44.156Z,12.100
2023-02-13T08:32:53.360Z,11.500
2023-02-13T08:34:40.917Z,11.300
2023-02-13T08:35:41.725Z,11.200
2023-02-13T08:36:41.461Z,12.000
2023-02-13T08:37:41.202Z,13.300
2023-02-13T08:39:41.688Z,12.100
2023-02-13T08:40:42.412Z,13.600
2023-02-13T08:41:41.352Z,12.900
2023-02-13T08:42:41.127Z,12.100
2023-02-13T08:43:41.863Z,12.100
2023-02-13T08:44:41.511Z,12.100
2023-02-13T08:45:41.179Z,11.800
2023-02-13T08:46:41.268Z,12.500
2023-02-13T08:47:41.032Z,12.500
2023-02-13T08:48:41.684Z,12.600
2023-02-13T08:49:41.455Z,14.200
2023-02-13T08:50:41.060Z,13.000
2023-02-13T08:51:41.753Z,12.300
2023-02-13T08:52:41.438Z,13.800
2023-02-13T08:53:41.087Z,14.500
2023-02-13T08:54:41.739Z,13.300
2023-02-13T08:55:41.392Z,12.500
2023-02-13T08:56:41.021Z,14.100
2023-02-13T08:57:41.721Z,12.400
2023-02-13T08:58:41.328Z,13.100
2023-02-13T08:59:41.036Z,13.000
2023-02-13T09:00:41.722Z,12.600
2023-02-13T09:01:41.559Z,12.200
2023-02-13T09:02:41.723Z,12.300
2023-02-13T09:03:43.938Z,13.400
2023-02-13T09:04:41.685Z,14.100
2023-02-13T09:05:41.601Z,14.100
2023-02-13T09:06:41.467Z,13.400
2023-02-13T09:07:41.317Z,13.900
2023-02-13T09:08:41.027Z,14.300
2023-02-13T09:09:41.701Z,14.400
2023-02-13T09:10:41.385Z,13.200
2023-02-13T09:11:41.025Z,14.900
2023-02-13T09:12:41.627Z,14.100
2023-02-13T09:13:41.360Z,15.700
2023-02-13T09:14:41.324Z,14.900
2023-02-13T09:15:41.023Z,17.300
2023-02-13T09:16:41.718Z,17.300
2023-02-13T09:17:41.540Z,19.800
2023-02-13T09:18:41.406Z,19.400
2023-02-13T09:19:41.436Z,20.900
2023-02-13T09:20:41.236Z,19.800
2023-02-13T09:21:41.124Z,20.000
2023-02-13T09:22:42.042Z,20.800
2023-02-13T09:23:42.257Z,21.600
2023-02-13T09:24:41.012Z,22.500
2023-02-13T09:25:41.850Z,23.600
2023-02-13T09:26:41.573Z,23.500
2023-02-13T09:27:41.345Z,22.500
2023-02-13T09:28:42.973Z,22.900
2023-02-13T09:29:40.940Z,23.700
2023-02-13T09:30:41.844Z,23.500
2023-02-13T09:31:44.485Z,24.600
2023-02-13T09:32:41.564Z,25.000
2023-02-13T09:33:41.179Z,25.600
2023-02-13T09:34:41.845Z,24.100
2023-02-13T09:35:41.729Z,24.700
2023-02-13T09:36:41.368Z,23.500
2023-02-13T09:37:41.144Z,24.000
2023-02-13T09:38:41.740Z,25.700
2023-02-13T09:39:41.520Z,25.900
2023-02-13T09:40:41.351Z,26.600
2023-02-13T09:41:41.264Z,26.000
2023-02-13T09:42:40.984Z,25.900
2023-02-13T09:43:41.652Z,25.300
2023-02-13T09:44:41.359Z,26.800
2023-02-13T09:45:40.970Z,25.600
2023-02-13T09:46:41.902Z,25.700
2023-02-13T09:47:41.692Z,25.300
2023-02-13T09:48:41.239Z,25.000
2023-02-13T09:49:40.804Z,25.600
2023-02-13T09:50:41.585Z,25.200
2023-02-13T09:51:41.254Z,25.700
2023-02-13T09:52:41.204Z,25.200
2023-02-13T09:53:41.790Z,25.300
2023-02-13T09:54:41.484Z,26.000
2023-02-13T09:55:41.122Z,24.700
2023-02-13T09:56:41.732Z,24.700
2023-02-13T09:57:41.409Z,27.000
2023-02-13T09:58:41.136Z,25.200
2023-02-13T09:59:41.021Z,25.000
2023-02-13T10:00:42.016Z,25.800
2023-02-13T10:01:41.984Z,23.800
2023-02-13T10:02:41.797Z,26.600
2023-02-13T10:03:41.510Z,25.700
2023-02-13T10:04:41.287Z,25.900
2023-02-13T10:06:41.973Z,25.700
2023-02-13T10:07:41.868Z,27.000
2023-02-13T10:08:41.503Z,25.900
2023-02-13T10:09:41.144Z,25.500
2023-02-13T10:10:41.868Z,26.200
2023-02-13T10:11:41.587Z,25.600
2023-02-13T10:12:41.244Z,26.500
2023-02-13T10:13:40.972Z,26.100
2023-02-13T10:14:41.631Z,25.000
2023-02-13T10:15:41.393Z,25.400
2023-02-13T10:16:41.444Z,25.400
2023-02-13T10:17:41.172Z,25.800
2023-02-13T10:18:41.820Z,26.200
2023-02-13T10:19:41.633Z,26.200
2023-02-13T10:20:41.308Z,24.500
2023-02-13T10:21:40.949Z,24.700
2023-02-13T10:22:41.770Z,26.700
2023-02-13T10:23:41.402Z,26.200
2023-02-13T10:24:41.161Z,27.600
2023-02-13T10:25:40.916Z,24.900
2023-02-13T10:26:41.613Z,25.500
2023-02-13T10:27:41.300Z,26.500
2023-02-13T10:28:41.202Z,25.800
2023-02-13T10:29:40.993Z,26.700
2023-02-13T10:30:41.688Z,26.100
2023-02-13T10:31:41.849Z,26.300
2023-02-13T10:32:41.296Z,25.400
2023-02-13T10:33:41.001Z,25.200
2023-02-13T10:34:40.993Z,26.100
2023-02-13T10:35:41.725Z,27.000
2023-02-13T10:36:41.575Z,28.700
2023-02-13T10:37:41.420Z,25.800
2023-02-13T10:38:41.108Z,25.400
2023-02-13T10:39:42.007Z,27.200
2023-02-13T10:40:41.752Z,25.300
2023-02-13T10:41:41.648Z,25.800
2023-02-13T10:42:41.362Z,24.200
2023-02-13T10:43:41.025Z,25.900
2023-02-13T10:44:41.688Z,26.100
2023-02-13T10:45:41.359Z,25.600
2023-02-13T10:46:41.260Z,26.100
2023-02-13T10:47:40.998Z,25.600
2023-02-13T10:48:43.336Z,25.700
2023-02-13T10:49:41.022Z,25.000
2023-02-13T10:50:41.797Z,26.000
2023-02-13T10:51:41.695Z,25.300
2023-02-13T10:52:41.365Z,24.300
2023-02-13T10:53:41.040Z,24.000
2023-02-13T10:54:41.761Z,25.300
2023-02-13T10:55:41.376Z,24.900
2023-02-13T10:56:41.115Z,24.500
2023-02-13T10:57:41.809Z,24.900
2023-02-13T10:58:41.613Z,25.600
2023-02-13T10:59:41.309Z,25.500
2023-02-13T11:00:42.854Z,25.900
2023-02-13T11:01:42.068Z,24.000
2023-02-13T11:02:40.988Z,25.400
2023-02-13T11:03:41.725Z,28.800
2023-02-13T11:04:41.599Z,25.700
2023-02-13T11:05:41.396Z,23.400
2023-02-13T11:06:41.035Z,24.000
2023-02-13T11:07:40.948Z,22.000
2023-02-13T11:08:40.900Z,22.700
2023-02-13T11:09:41.881Z,22.700
2023-02-13T11:10:41.860Z,20.500
2023-02-13T11:11:41.740Z,21.300
2023-02-13T11:12:41.430Z,20.900
2023-02-13T11:13:41.112Z,20.900
2023-02-13T11:14:41.864Z,22.700
2023-02-13T11:15:41.731Z,21.400
2023-02-13T11:16:41.689Z,22.100
2023-02-13T11:17:41.444Z,21.800
2023-02-13T11:18:41.075Z,20.800
2023-02-13T11:19:41.849Z,21.500
2023-02-13T11:20:41.589Z,21.000
2023-02-13T11:21:41.262Z,20.900
2023-02-13T11:22:41.143Z,21.600
2023-02-13T11:23:41.812Z,20.500
2023-02-13T11:24:41.496Z,20.900
2023-02-13T11:25:41.233Z,21.900
2023-02-13T11:26:40.945Z,21.700
2023-02-13T11:27:41.701Z,20.200
2023-02-13T11:28:41.552Z,20.300
2023-02-13T11:29:41.461Z,20.100
2023-02-13T11:30:41.180Z,19.600
2023-02-13T11:31:41.197Z,19.800
2023-02-13T11:32:41.316Z,19.500
2023-02-13T11:33:41.751Z,20.200
2023-02-13T11:34:41.523Z,20.400
2023-02-13T11:35:41.235Z,19.900
2023-02-13T11:36:41.080Z,19.200
2023-02-13T11:37:41.934Z,20.300
2023-02-13T11:38:41.630Z,19.900
2023-02-13T11:39:41.359Z,20.000
2023-02-13T11:40:41.080Z,20.500
2023-02-13T11:41:41.720Z,21.800
2023-02-13T11:42:41.384Z,20.100
2023-02-13T11:43:41.492Z,20.600
2023-02-13T11:44:41.283Z,20.700
2023-02-13T11:45:41.034Z,19.700
2023-02-13T11:46:42.184Z,20.600
2023-02-13T11:47:41.211Z,20.100
2023-02-13T11:48:41.089Z,20.400
2023-02-13T11:49:41.752Z,20.300
2023-02-13T11:50:41.569Z,20.100
2023-02-13T11:51:41.384Z,20.200
2023-02-13T11:52:41.067Z,19.100
2023-02-13T11:53:41.825Z,20.100
2023-02-13T11:54:41.527Z,20.000
2023-02-13T11:55:41.305Z,19.100
2023-02-13T11:56:50.248Z,20.300
2023-02-13T11:58:45.583Z,19.800
2023-02-13T11:59:45.406Z,18.200
2023-02-13T12:00:45.055Z,19.700
2023-02-13T12:01:45.816Z,20.100
2023-02-13T12:02:45.730Z,19.600
2023-02-13T12:03:46.089Z,19.100
2023-02-13T12:04:44.957Z,19.800
2023-02-13T12:05:45.664Z,19.600
2023-02-13T12:06:45.812Z,20.200
2023-02-13T12:07:45.456Z,18.800
2023-02-13T12:08:45.157Z,19.500
2023-02-13T12:09:45.016Z,20.200
2023-02-13T12:10:45.741Z,19.100
2023-02-13T12:11:45.440Z,19.200
2023-02-13T12:12:45.178Z,19.400
2023-02-13T12:13:45.935Z,20.000
2023-02-13T12:14:45.670Z,18.700
2023-02-13T12:15:45.326Z,18.500
2023-02-13T12:16:45.208Z,18.500
2023-02-13T12:17:49.864Z,19.600
2023-02-13T12:18:45.569Z,19.500
2023-02-13T12:19:45.337Z,19.700
2023-02-13T12:20:45.097Z,18.600
2023-02-13T12:22:45.372Z,18.700
2023-02-13T12:23:45.084Z,19.900
2023-02-13T12:24:47.133Z,18.200
2023-02-13T12:25:46.205Z,20.200
2023-02-13T12:26:44.873Z,19.800
2023-02-13T12:27:45.509Z,19.900
2023-02-13T12:28:45.579Z,20.900
2023-02-13T12:29:45.400Z,20.100
2023-02-13T12:30:45.231Z,19.200
2023-02-13T12:31:45.017Z,20.100
2023-02-13T12:32:45.925Z,20.000
2023-02-13T12:33:45.616Z,19.000
2023-02-13T12:34:45.316Z,20.400
2023-02-13T12:35:45.059Z,20.200
2023-02-13T12:36:45.716Z,20.200
2023-02-13T12:37:45.328Z,20.400
2023-02-13T12:38:44.917Z,19.900
2023-02-13T12:39:45.680Z,20.100
2023-02-13T12:40:45.415Z,20.600
2023-02-13T12:41:45.015Z,19.100
2023-02-13T12:42:45.646Z,20.400
2023-02-13T12:43:45.447Z,20.300
2023-02-13T12:44:45.052Z,19.900
2023-02-13T12:45:45.903Z,19.600
2023-02-13T12:46:45.676Z,19.000
2023-02-13T12:47:45.277Z,19.300
2023-02-13T12:48:44.970Z,20.000
2023-02-13T12:49:45.615Z,19.600
2023-02-13T12:50:45.316Z,19.900
2023-02-13T12:51:44.992Z,20.000
2023-02-13T12:52:45.617Z,19.400
2023-02-13T12:53:46.641Z,19.200
2023-02-13T12:54:45.347Z,19.400
2023-02-13T12:55:45.054Z,18.800
2023-02-13T12:56:45.797Z,19.000
2023-02-13T12:57:45.408Z,18.000